createdAt,value
2018-04-11T00:00:05.569Z,83.42
2018-04-11T00:02:34.000Z,84.09
2018-04-11T00:05:08.618Z,83.40
2018-04-11T00:07:36.652Z,82.38
2018-04-11T00:10:06.199Z,83.57
2018-04-11T00:12:34.378Z,83.95
2018-04-11T00:15:09.227Z,85.17
2018-04-11T00:17:37.232Z,85.28
2018-04-11T00:20:06.589Z,85.00
2018-04-11T00:22:34.907Z,83.29
2018-04-11T00:25:06.619Z,82.74
2018-04-11T00:27:34.905Z,83.65
2018-04-11T00:30:06.167Z,84.83
2018-04-11T00:32:34.212Z,85.57
2018-04-11T00:35:07.742Z,86.45
2018-04-11T00:37:35.752Z,86.98
2018-04-11T00:40:07.407Z,86.85
2018-04-11T00:42:35.407Z,88.09
2018-04-11T00:45:06.396Z,87.76
2018-04-11T00:47:34.591Z,88.66
2018-04-11T00:50:06.330Z,88.16
2018-04-11T00:52:34.866Z,88.04
2018-04-11T00:55:05.695Z,87.84
2018-04-11T00:57:33.686Z,88.07
2018-04-11T01:00:08.178Z,87.70
2018-04-11T01:02:36.185Z,87.73
2018-04-11T01:05:07.139Z,88.06
2018-04-11T01:07:35.132Z,87.94
2018-04-11T01:10:06.774Z,87.96
2018-04-11T01:12:34.764Z,87.61
2018-04-11T01:15:06.932Z,86.96
2018-04-11T01:17:34.908Z,87.67
2018-04-11T01:20:05.726Z,87.80
2018-04-11T01:22:33.728Z,88.43
2018-04-11T01:25:08.320Z,88.72
2018-04-11T01:27:36.324Z,88.82
2018-04-11T01:30:07.348Z,88.26
2018-04-11T01:32:35.376Z,88.06
2018-04-11T01:35:06.902Z,88.12
2018-04-11T01:37:35.209Z,88.85
2018-04-11T01:40:06.452Z,88.42
2018-04-11T01:42:35.332Z,88.90
2018-04-11T01:45:06.254Z,88.36
2018-04-11T01:47:34.339Z,88.33
2018-04-11T01:50:05.643Z,88.36
2018-04-11T01:52:33.675Z,88.18
2018-04-11T01:55:08.375Z,88.03
2018-04-11T01:57:36.407Z,87.64
2018-04-11T02:00:07.557Z,86.97
2018-04-11T02:02:35.582Z,86.76
2018-04-11T02:05:06.943Z,86.35
2018-04-11T02:07:34.948Z,86.79
2018-04-11T02:10:06.406Z,86.73
2018-04-11T02:12:34.696Z,85.82
2018-04-11T02:15:06.479Z,86.01
2018-04-11T02:17:34.493Z,85.60
2018-04-11T02:20:09.119Z,86.67
2018-04-11T02:22:37.119Z,87.24
2018-04-11T02:25:06.384Z,87.53
2018-04-11T02:27:34.415Z,87.28
2018-04-11T02:30:08.451Z,87.37
2018-04-11T02:32:36.474Z,88.38
2018-04-11T02:35:07.538Z,88.72
2018-04-11T02:37:35.542Z,88.73
2018-04-11T02:40:07.299Z,88.87
2018-04-11T02:42:35.587Z,88.96
2018-04-11T02:45:07.051Z,88.76
2018-04-11T02:47:35.111Z,88.92
2018-04-11T02:50:05.815Z,88.43
2018-04-11T02:52:33.845Z,87.97
2018-04-11T02:55:06.024Z,86.98
2018-04-11T02:57:34.018Z,86.90
2018-04-11T03:00:08.822Z,86.76
2018-04-11T03:02:36.841Z,87.36
2018-04-11T03:05:07.348Z,88.13
2018-04-11T03:07:35.377Z,88.09
2018-04-11T03:10:06.844Z,87.64
2018-04-11T03:12:34.855Z,87.66
2018-04-11T03:15:05.844Z,87.63
2018-04-11T03:17:33.868Z,87.58
2018-04-11T03:20:08.152Z,87.44
2018-04-11T03:22:36.167Z,86.81
2018-04-11T03:25:08.915Z,87.17
2018-04-11T03:27:37.115Z,87.22
2018-04-11T03:30:06.896Z,87.50
2018-04-11T03:32:35.272Z,87.37
2018-04-11T03:35:06.803Z,87.79
2018-04-11T03:37:34.816Z,88.07
2018-04-11T03:40:05.854Z,87.58
2018-04-11T03:42:33.898Z,87.66
2018-04-11T03:45:06.173Z,88.08
2018-04-11T03:47:34.393Z,88.31
2018-04-11T03:50:05.583Z,88.53
2018-04-11T03:52:34.203Z,88.25
2018-04-11T03:55:05.268Z,88.61
2018-04-11T03:57:33.274Z,88.17
2018-04-11T04:00:05.238Z,87.33
2018-04-11T04:02:33.555Z,87.31
2018-04-11T04:05:08.051Z,87.29
2018-04-11T04:07:36.129Z,87.11
2018-04-11T04:10:06.355Z,87.69
2018-04-11T04:12:34.533Z,88.01
2018-04-11T04:15:14.485Z,87.85
2018-04-11T04:17:54.357Z,87.62
2018-04-11T04:20:34.188Z,87.67
2018-04-11T04:23:02.335Z,87.97
2018-04-11T04:25:30.357Z,88.39
2018-04-11T04:27:58.373Z,88.26
2018-04-11T04:30:26.387Z,88.08
2018-04-11T04:32:55.384Z,87.12
2018-04-11T04:35:23.399Z,88.12
2018-04-11T04:37:51.429Z,88.24
2018-04-11T04:40:19.455Z,88.22
2018-04-11T04:42:47.483Z,87.34
2018-04-11T04:45:15.599Z,87.68
2018-04-11T04:47:43.624Z,87.30
2018-04-11T04:50:11.615Z,86.86
2018-04-11T04:52:39.655Z,87.07
2018-04-11T04:55:07.665Z,87.26
2018-04-11T04:57:36.016Z,86.59
2018-04-11T05:00:07.047Z,86.73
2018-04-11T05:02:35.079Z,86.58
2018-04-11T05:05:06.204Z,87.02
2018-04-11T05:07:34.236Z,87.11
2018-04-11T05:10:06.588Z,87.52
2018-04-11T05:12:34.952Z,88.44
2018-04-11T05:15:06.102Z,89.56
2018-04-11T05:17:34.114Z,90.49
2018-04-11T05:20:05.727Z,89.61
2018-04-11T05:22:34.066Z,89.33
2018-04-11T05:25:09.032Z,89.18
2018-04-11T05:27:37.036Z,89.85
2018-04-11T05:30:06.499Z,90.76
2018-04-11T05:32:34.531Z,90.75
2018-04-11T05:35:05.908Z,90.19
2018-04-11T05:37:34.495Z,89.36
2018-04-11T05:40:08.470Z,88.46
2018-04-11T05:42:37.243Z,88.09
2018-04-11T05:45:06.807Z,87.75
2018-04-11T05:47:34.812Z,87.96
2018-04-11T05:50:06.595Z,88.27
2018-04-11T05:52:34.603Z,87.88
2018-04-11T05:55:05.857Z,88.67
2018-04-11T05:57:33.878Z,88.86
2018-04-11T06:00:08.281Z,89.44
2018-04-11T06:02:36.295Z,90.06
2018-04-11T06:05:05.975Z,89.94
2018-04-11T06:07:34.011Z,89.57
2018-04-11T06:10:05.359Z,88.67
2018-04-11T06:12:33.390Z,88.57
2018-04-11T06:17:35.724Z,88.78
2018-04-11T06:20:07.068Z,88.76
2018-04-11T06:22:35.100Z,88.82
2018-04-11T06:25:11.036Z,88.66
2018-04-11T06:27:39.048Z,89.69
2018-04-11T06:30:07.119Z,90.05
2018-04-11T06:32:39.000Z,89.75
2018-04-11T06:35:07.075Z,89.38
2018-04-11T06:37:35.168Z,89.11
2018-04-11T06:40:06.299Z,89.84
2018-04-11T06:42:34.338Z,90.11
2018-04-11T06:45:09.116Z,90.04
2018-04-11T06:47:37.145Z,90.02
2018-04-11T06:50:06.799Z,89.64
2018-04-11T06:52:34.828Z,89.75
2018-04-11T06:55:06.037Z,90.23
2018-04-11T06:57:34.073Z,89.39
2018-04-11T07:00:05.774Z,89.36
2018-04-11T07:02:33.791Z,89.69
2018-04-11T07:05:08.352Z,89.99
2018-04-11T07:07:36.361Z,90.23
2018-04-11T07:10:07.594Z,89.71
2018-04-11T07:12:35.611Z,89.89
2018-04-11T07:15:07.068Z,89.33
2018-04-11T07:17:35.282Z,88.67
2018-04-11T07:20:06.310Z,88.06
2018-04-11T07:22:34.307Z,88.40
2018-04-11T07:25:05.531Z,89.14
2018-04-11T07:27:34.403Z,89.19
2018-04-11T07:30:06.070Z,88.85
2018-04-11T07:32:34.074Z,88.80
2018-04-11T07:35:08.516Z,88.56
2018-04-11T07:37:36.544Z,88.42
2018-04-11T07:40:06.169Z,88.55
2018-04-11T07:42:34.428Z,89.18
2018-04-11T07:45:09.115Z,88.58
2018-04-11T07:47:37.779Z,87.56
2018-04-11T07:50:07.291Z,87.35
2018-04-11T07:52:35.409Z,86.68
2018-04-11T07:55:06.379Z,87.92
2018-04-11T07:57:34.423Z,88.97
2018-04-11T08:00:09.195Z,89.91
2018-04-11T08:02:37.200Z,89.28
2018-04-11T08:05:06.950Z,87.80
2018-04-11T08:07:34.972Z,87.81
2018-04-11T08:10:06.434Z,88.35
2018-04-11T08:12:34.375Z,87.64
2018-04-11T08:15:09.163Z,87.06
2018-04-11T08:17:37.169Z,86.64
2018-04-11T08:20:06.895Z,87.83
2018-04-11T08:22:35.211Z,87.93
2018-04-11T08:25:06.127Z,87.44
2018-04-11T08:27:34.155Z,86.49
2018-04-11T08:30:08.659Z,86.42
2018-04-11T08:32:36.685Z,86.82
2018-04-11T08:35:08.158Z,87.29
2018-04-11T08:37:36.172Z,87.42
2018-04-11T08:40:07.400Z,87.36
2018-04-11T08:42:35.459Z,87.81
2018-04-11T08:45:07.600Z,87.60
2018-04-11T08:47:35.639Z,88.31
2018-04-11T08:50:07.518Z,88.11
2018-04-11T08:52:35.558Z,87.65
2018-04-11T08:55:08.465Z,87.30
2018-04-11T08:57:36.467Z,86.74
2018-04-11T09:00:06.292Z,86.13
2018-04-11T09:02:34.959Z,85.36
2018-04-11T09:05:07.007Z,86.08
2018-04-11T09:07:35.129Z,86.56
2018-04-11T09:10:06.455Z,86.34
2018-04-11T09:12:34.542Z,87.38
2018-04-11T09:15:05.630Z,86.38
2018-04-11T09:17:33.859Z,86.25
2018-04-11T09:20:08.197Z,86.05
2018-04-11T09:22:36.330Z,87.40
2018-04-11T09:25:07.662Z,87.69
2018-04-11T09:27:35.706Z,87.49
2018-04-11T09:30:07.123Z,86.58
2018-04-11T09:32:35.164Z,87.29
2018-04-11T09:35:06.808Z,86.70
2018-04-11T09:37:34.828Z,86.12
2018-04-11T09:40:06.031Z,86.51
2018-04-11T09:42:35.228Z,85.34
2018-04-11T09:45:06.516Z,84.82
2018-04-11T09:47:34.549Z,84.81
2018-04-11T09:50:09.239Z,86.15
2018-04-11T09:52:37.237Z,85.95
2018-04-11T09:55:06.694Z,85.66
2018-04-11T09:57:34.720Z,85.52
2018-04-11T10:00:09.187Z,85.57
2018-04-11T10:02:37.205Z,86.35
2018-04-11T10:05:07.844Z,86.46
2018-04-11T10:07:35.872Z,87.00
2018-04-11T10:10:07.471Z,86.00
2018-04-11T10:12:35.524Z,86.18
2018-04-11T10:15:07.083Z,86.70
2018-04-11T10:17:35.199Z,87.13
2018-04-11T10:20:06.579Z,87.26
2018-04-11T10:22:34.576Z,86.64
2018-04-11T10:25:05.729Z,86.80
2018-04-11T10:27:33.739Z,87.64
2018-04-11T10:30:04.938Z,87.95
2018-04-11T10:32:32.928Z,87.96
2018-04-11T10:35:04.661Z,88.24
2018-04-11T10:37:33.483Z,87.25
2018-04-11T10:40:04.781Z,87.37
2018-04-11T10:42:32.808Z,87.61
2018-04-11T10:45:00.825Z,88.30
2018-04-11T10:47:31.682Z,87.77
2018-04-11T10:50:00.599Z,86.92
2018-04-11T10:52:31.527Z,84.60
2018-04-11T10:54:59.567Z,85.93
2018-04-11T10:57:27.723Z,85.49
2018-04-11T10:59:55.752Z,86.61
2018-04-11T11:02:23.782Z,87.35
2018-04-11T11:04:51.825Z,86.55
2018-04-11T11:07:19.859Z,87.09
2018-04-11T11:09:47.935Z,87.02
2018-04-11T11:12:16.182Z,86.42
2018-04-11T11:14:44.485Z,87.24
2018-04-11T11:17:12.477Z,84.60
2018-04-11T11:19:52.366Z,82.52
2018-04-11T11:22:20.379Z,83.43
2018-04-11T11:24:48.419Z,82.17
2018-04-11T11:27:16.447Z,81.99
2018-04-11T11:29:44.471Z,81.70
2018-04-11T11:32:12.794Z,82.81
2018-04-11T11:34:40.996Z,84.12
2018-04-11T11:37:09.011Z,83.42
2018-04-11T11:39:37.028Z,82.47
2018-04-11T11:42:05.032Z,84.92
2018-04-11T11:44:33.057Z,84.56
2018-04-11T11:47:01.056Z,84.30
2018-04-11T11:49:29.087Z,83.54
2018-04-11T11:51:57.120Z,83.41
2018-04-11T11:54:25.130Z,84.71
2018-04-11T11:56:53.316Z,82.04
2018-04-11T11:59:21.463Z,81.20
2018-04-11T12:01:49.480Z,81.29
2018-04-11T12:04:17.489Z,80.94
2018-04-11T12:06:45.519Z,80.19
2018-04-11T12:09:13.560Z,80.05
2018-04-11T12:11:41.579Z,80.09
2018-04-11T12:14:09.791Z,81.07
2018-04-11T12:16:37.827Z,81.45
2018-04-11T12:19:06.068Z,80.16
2018-04-11T12:21:34.091Z,78.20
2018-04-11T12:24:02.113Z,78.86
2018-04-11T12:26:30.155Z,77.06
2018-04-11T12:28:58.175Z,76.56
2018-04-11T12:31:26.495Z,76.44
2018-04-11T12:33:54.516Z,75.92
2018-04-11T12:36:22.539Z,75.37
2018-04-11T12:38:50.678Z,77.13
2018-04-11T12:41:18.703Z,78.93
2018-04-11T12:43:46.734Z,77.80
2018-04-11T12:46:15.110Z,77.09
2018-04-11T12:48:43.897Z,77.88
2018-04-11T12:51:11.988Z,78.74
2018-04-11T12:53:40.252Z,78.20
2018-04-11T12:56:08.276Z,78.83
2018-04-11T12:58:36.561Z,78.38
2018-04-11T13:01:04.639Z,81.75
2018-04-11T13:03:32.611Z,80.04
2018-04-11T13:06:00.649Z,78.32
2018-04-11T13:08:28.680Z,78.16
2018-04-11T13:10:56.696Z,79.60
2018-04-11T13:13:24.811Z,80.39
2018-04-11T13:15:52.827Z,82.89
2018-04-11T13:18:20.917Z,82.18
2018-04-11T13:20:49.536Z,82.50
2018-04-11T13:23:17.752Z,80.31
2018-04-11T13:25:45.959Z,78.21
2018-04-11T13:28:14.288Z,75.80
2018-04-11T13:30:42.311Z,77.29
2018-04-11T13:33:10.540Z,77.77
2018-04-11T13:35:38.567Z,77.29
2018-04-11T13:38:06.665Z,74.05
2018-04-11T13:40:34.641Z,71.03
2018-04-11T13:43:02.684Z,73.35
2018-04-11T13:45:30.887Z,75.70
2018-04-11T13:47:59.683Z,74.25
2018-04-11T13:50:27.715Z,73.02
2018-04-11T13:52:55.825Z,73.89
2018-04-11T13:55:23.869Z,73.94
2018-04-11T13:57:51.868Z,74.90
2018-04-11T14:00:20.305Z,79.01
2018-04-11T14:02:48.319Z,79.89
2018-04-11T14:05:16.356Z,78.74
2018-04-11T14:07:44.369Z,74.88
2018-04-11T14:10:12.391Z,73.77
2018-04-11T14:12:44.399Z,72.69
2018-04-11T14:15:12.431Z,73.63
2018-04-11T14:17:40.723Z,72.39
2018-04-11T14:20:08.946Z,73.36
2018-04-11T14:22:36.952Z,73.14
2018-04-11T14:25:08.388Z,72.60
2018-04-11T14:27:36.416Z,72.18
2018-04-11T14:30:08.042Z,70.56
2018-04-11T14:32:36.058Z,73.83
2018-04-11T14:35:05.644Z,73.17
2018-04-11T14:37:33.667Z,72.08
2018-04-11T14:40:04.955Z,69.33
2018-04-11T14:42:32.983Z,68.32
2018-04-11T14:45:04.363Z,70.89
2018-04-11T14:47:32.399Z,69.19
2018-04-11T14:50:05.307Z,73.00
2018-04-11T14:52:33.291Z,70.78
2018-04-11T14:55:08.223Z,73.27
2018-04-11T14:57:36.281Z,71.24
2018-04-11T15:00:05.840Z,69.14
2018-04-11T15:02:34.454Z,71.81
2018-04-11T15:05:06.071Z,71.25
2018-04-11T15:07:34.083Z,69.04
2018-04-11T15:10:05.167Z,67.79
2018-04-11T15:12:33.187Z,69.18
2018-04-11T15:15:07.690Z,69.11
2018-04-11T15:17:35.712Z,66.95
2018-04-11T15:20:11.787Z,66.58
2018-04-11T15:22:39.804Z,67.42
2018-04-11T15:25:07.878Z,68.10
2018-04-11T15:27:35.933Z,68.04
2018-04-11T15:30:07.197Z,71.14
2018-04-11T15:32:35.227Z,69.38
2018-04-11T15:35:07.019Z,68.80
2018-04-11T15:37:35.040Z,70.89
2018-04-11T15:40:06.290Z,69.19
2018-04-11T15:42:34.319Z,70.40
2018-04-11T15:45:09.155Z,69.11
2018-04-11T15:47:37.196Z,69.59
2018-04-11T15:50:05.938Z,68.67
2018-04-11T15:52:34.206Z,68.47
2018-04-11T15:55:05.492Z,67.50
2018-04-11T15:57:33.497Z,66.98
2018-04-11T16:00:08.027Z,66.66
2018-04-11T16:02:36.051Z,66.91
2018-04-11T16:05:07.241Z,68.08
2018-04-11T16:07:35.267Z,66.40
2018-04-11T16:10:06.806Z,66.21
2018-04-11T16:12:34.804Z,66.37
2018-04-11T16:15:06.143Z,67.45
2018-04-11T16:17:34.147Z,67.56
2018-04-11T16:20:05.436Z,67.63
2018-04-11T16:22:33.449Z,68.05
2018-04-11T16:25:07.805Z,68.78
2018-04-11T16:27:35.856Z,68.50
2018-04-11T16:30:07.388Z,67.89
2018-04-11T16:32:35.427Z,66.96
2018-04-11T16:35:06.940Z,68.92
2018-04-11T16:37:34.971Z,68.26
2018-04-11T16:40:06.236Z,68.59
2018-04-11T16:42:34.331Z,68.76
2018-04-11T16:45:09.080Z,69.12
2018-04-11T16:47:37.077Z,70.25
2018-04-11T16:50:06.633Z,69.91
2018-04-11T16:52:34.652Z,69.77
2018-04-11T16:55:08.036Z,69.93
2018-04-11T16:57:36.654Z,71.19
2018-04-11T17:00:06.504Z,70.77
2018-04-11T17:02:34.793Z,70.98
2018-04-11T17:05:06.403Z,71.86
2018-04-11T17:07:34.400Z,72.12
2018-04-11T17:10:09.318Z,72.37
2018-04-11T17:12:37.287Z,73.06
2018-04-11T17:15:05.975Z,73.27
2018-04-11T17:17:34.646Z,74.13
2018-04-11T17:20:06.483Z,73.82
2018-04-11T17:22:46.127Z,73.47
2018-04-11T17:25:25.839Z,74.15
2018-04-11T17:28:05.567Z,74.42
2018-04-11T17:30:45.345Z,75.01
2018-04-11T17:33:13.852Z,75.16
2018-04-11T17:35:41.900Z,75.25
2018-04-11T17:38:10.108Z,75.61
2018-04-11T17:40:39.343Z,75.65
2018-04-11T17:43:07.369Z,75.93
2018-04-11T17:45:35.369Z,76.27
2018-04-11T17:48:03.495Z,76.55
2018-04-11T17:50:31.607Z,76.71
2018-04-11T17:52:59.653Z,77.85
2018-04-11T17:55:27.593Z,77.55
2018-04-11T17:57:56.320Z,77.28
2018-04-11T18:00:24.326Z,77.99
2018-04-11T18:02:52.364Z,78.12
2018-04-11T18:05:20.367Z,78.87
2018-04-11T18:07:48.592Z,78.32
2018-04-11T18:10:16.645Z,78.53
2018-04-11T18:12:44.871Z,78.26
2018-04-11T18:15:12.866Z,78.38
2018-04-11T18:17:40.871Z,78.48
2018-04-11T18:20:08.908Z,78.66
2018-04-11T18:22:36.934Z,78.90
2018-04-11T18:25:06.259Z,79.17
2018-04-11T18:27:34.296Z,79.33
2018-04-11T18:30:05.563Z,79.52
2018-04-11T18:32:33.596Z,80.00
2018-04-11T18:35:08.767Z,79.93
2018-04-11T18:37:36.866Z,80.16
2018-04-11T18:40:06.013Z,80.35
2018-04-11T18:42:34.015Z,81.03
2018-04-11T18:45:05.300Z,81.39
2018-04-11T18:47:33.316Z,81.42
2018-04-11T18:50:04.968Z,81.84
2018-04-11T18:52:32.979Z,82.36
2018-04-11T18:55:04.152Z,82.87
2018-04-11T18:57:32.202Z,83.17
2018-04-11T19:00:00.207Z,83.11
2018-04-11T19:02:31.200Z,83.52
2018-04-11T19:04:59.259Z,83.83
2018-04-11T19:07:27.294Z,84.24
2018-04-11T19:09:55.311Z,84.26
2018-04-11T19:12:23.328Z,85.03
2018-04-11T19:14:51.518Z,85.26
2018-04-11T19:17:19.497Z,85.29
2018-04-11T19:19:47.521Z,85.78
2018-04-11T19:22:15.524Z,85.64
2018-04-11T19:24:43.540Z,85.78
2018-04-11T19:27:11.569Z,85.94
2018-04-11T19:29:39.633Z,85.88
2018-04-11T19:32:07.633Z,86.00
2018-04-11T19:34:35.666Z,85.84
2018-04-11T19:37:03.744Z,86.00
2018-04-11T19:39:31.924Z,86.26
2018-04-11T19:41:59.985Z,85.73
2018-04-11T19:44:28.077Z,85.54
2018-04-11T19:46:56.130Z,85.49
2018-04-11T19:49:24.776Z,85.54
2018-04-11T19:51:53.127Z,85.58
2018-04-11T19:54:21.240Z,86.12
2018-04-11T19:56:49.299Z,86.17
2018-04-11T19:59:17.363Z,86.33
2018-04-11T20:01:45.348Z,86.48
2018-04-11T20:04:13.374Z,86.59
2018-04-11T20:06:41.400Z,87.14
2018-04-11T20:09:09.448Z,86.99
2018-04-11T20:11:37.645Z,86.81
2018-04-11T20:14:05.626Z,87.06
2018-04-11T20:16:33.616Z,87.21
2018-04-11T20:19:01.660Z,87.67
2018-04-11T20:21:29.669Z,88.27
2018-04-11T20:23:57.962Z,88.46
2018-04-11T20:26:26.015Z,87.98
2018-04-11T20:28:54.052Z,87.59
2018-04-11T20:31:22.063Z,88.14
2018-04-11T20:33:50.088Z,88.17
2018-04-11T20:36:18.134Z,88.26
2018-04-11T20:38:46.152Z,88.30
2018-04-11T20:41:14.145Z,87.84
2018-04-11T20:43:42.163Z,87.86
2018-04-11T20:46:10.167Z,88.12
2018-04-11T20:48:38.367Z,87.88
2018-04-11T20:51:06.365Z,88.48
2018-04-11T20:53:34.370Z,88.76
2018-04-11T20:56:02.648Z,88.71
2018-04-11T20:58:30.811Z,89.32
2018-04-11T21:00:58.833Z,89.29
2018-04-11T21:03:27.116Z,88.93
2018-04-11T21:05:55.153Z,89.11
2018-04-11T21:08:23.159Z,89.75
2018-04-11T21:10:51.179Z,89.54
2018-04-11T21:13:19.291Z,89.39
2018-04-11T21:15:47.304Z,89.58
2018-04-11T21:18:15.319Z,89.70
2018-04-11T21:20:43.327Z,90.17
2018-04-11T21:23:12.223Z,90.25
2018-04-11T21:25:40.292Z,90.03
2018-04-11T21:28:08.266Z,90.67
2018-04-11T21:30:36.312Z,91.08
2018-04-11T21:33:04.295Z,91.05
2018-04-11T21:35:32.653Z,90.66
2018-04-11T21:38:00.659Z,89.88
2018-04-11T21:40:28.875Z,89.58
2018-04-11T21:42:56.887Z,90.20
2018-04-11T21:45:24.910Z,90.86
2018-04-11T21:47:52.915Z,90.69
2018-04-11T21:50:20.932Z,90.63
2018-04-11T21:52:48.968Z,90.82
2018-04-11T21:55:16.990Z,91.37
2018-04-11T21:57:45.022Z,91.82
2018-04-11T22:00:13.007Z,91.60
2018-04-11T22:02:41.021Z,90.77
2018-04-11T22:05:09.015Z,90.71
2018-04-11T22:07:37.049Z,91.19
2018-04-11T22:10:06.796Z,91.63
2018-04-11T22:12:34.862Z,91.66
2018-04-11T22:15:08.543Z,91.03
2018-04-11T22:17:36.849Z,90.74
2018-04-11T22:20:06.011Z,91.32
2018-04-11T22:22:34.016Z,91.47
2018-04-11T22:25:08.406Z,90.92
2018-04-11T22:27:36.732Z,90.84
2018-04-11T22:30:07.120Z,90.93
2018-04-11T22:32:35.112Z,90.77
2018-04-11T22:35:06.272Z,91.07
2018-04-11T22:37:34.422Z,91.56
2018-04-11T22:40:05.450Z,91.58
2018-04-11T22:42:33.472Z,91.33
2018-04-11T22:45:05.361Z,91.22
2018-04-11T22:47:33.383Z,90.57
2018-04-11T22:52:33.801Z,90.33
2018-04-11T22:55:08.325Z,90.30
2018-04-11T22:57:36.311Z,90.56
2018-04-11T23:00:06.153Z,90.83
2018-04-11T23:02:34.166Z,90.88
2018-04-11T23:05:07.551Z,90.80
2018-04-11T23:07:35.619Z,90.50
2018-04-11T23:10:06.000Z,90.30
2018-04-11T23:12:33.991Z,90.33
2018-04-11T23:15:09.869Z,90.17
2018-04-11T23:17:37.882Z,90.14
2018-04-11T23:20:06.931Z,89.99
2018-04-11T23:22:34.923Z,90.03
2018-04-11T23:25:06.755Z,90.45
2018-04-11T23:27:34.757Z,90.69
2018-04-11T23:30:09.556Z,90.72
2018-04-11T23:32:37.571Z,90.87
2018-04-11T23:35:06.302Z,90.68
2018-04-11T23:37:34.298Z,90.19
2018-04-11T23:40:09.063Z,90.73
2018-04-11T23:42:37.069Z,90.97
2018-04-11T23:45:06.718Z,90.54
2018-04-11T23:47:35.201Z,90.71
2018-04-11T23:50:06.263Z,90.85
2018-04-11T23:52:34.248Z,90.79
2018-04-11T23:55:06.041Z,91.19
2018-04-11T23:57:34.039Z,90.73
